sensor_id;sensor_type;location;lat;lon;timestamp;pressure;altitude;pressure_sealevel;temperature;humidity
30744;BME280;17486;46.738;7.622;2024-01-06T00:01:59;94078.59;;;6.14;68.71
30744;BME280;17486;46.738;7.622;2024-01-06T00:04:25;94071.75;;;6.13;68.47
30744;BME280;17486;46.738;7.622;2024-01-06T00:06:50;94067.97;;;6.03;68.47
30744;BME280;17486;46.738;7.622;2024-01-06T00:09:15;94079.56;;;6.12;68.72
30744;BME280;17486;46.738;7.622;2024-01-06T00:11:41;94089.81;;;6.13;68.19
30744;BME280;17486;46.738;7.622;2024-01-06T00:14:06;94087.22;;;6.13;68.16
30744;BME280;17486;46.738;7.622;2024-01-06T00:16:31;94078.06;;;6.08;68.31
30744;BME280;17486;46.738;7.622;2024-01-06T00:18:57;94088.22;;;6.11;68.00
30744;BME280;17486;46.738;7.622;2024-01-06T00:21:22;94085.56;;;6.12;68.19
30744;BME280;17486;46.738;7.622;2024-01-06T00:23:47;94086.63;;;6.08;68.45
30744;BME280;17486;46.738;7.622;2024-01-06T00:26:13;94090.88;;;6.09;68.84
30744;BME280;17486;46.738;7.622;2024-01-06T00:28:39;94090.88;;;6.09;68.68
30744;BME280;17486;46.738;7.622;2024-01-06T00:31:05;94090.13;;;6.07;68.33
30744;BME280;17486;46.738;7.622;2024-01-06T00:33:31;94097.03;;;6.07;68.79
30744;BME280;17486;46.738;7.622;2024-01-06T00:35:56;94092.69;;;6.07;68.77
30744;BME280;17486;46.738;7.622;2024-01-06T00:38:21;94095.28;;;6.07;68.41
30744;BME280;17486;46.738;7.622;2024-01-06T00:40:47;94103.03;;;6.07;68.89
30744;BME280;17486;46.738;7.622;2024-01-06T00:43:12;94086.94;;;6.02;68.67
30744;BME280;17486;46.738;7.622;2024-01-06T00:45:38;94100.53;;;6.06;68.29
30744;BME280;17486;46.738;7.622;2024-01-06T00:48:03;94096.19;;;6.06;68.92
30744;BME280;17486;46.738;7.622;2024-01-06T00:50:29;94096.34;;;6.03;68.73
30744;BME280;17486;46.738;7.622;2024-01-06T00:52:54;94100.59;;;6.04;68.79
30744;BME280;17486;46.738;7.622;2024-01-06T00:55:20;94068.78;;;5.86;68.75
30744;BME280;17486;46.738;7.622;2024-01-06T00:57:45;94100.69;;;6.03;68.68
30744;BME280;17486;46.738;7.622;2024-01-06T01:00:11;94097.34;;;6.01;68.60
30744;BME280;17486;46.738;7.622;2024-01-06T01:02:38;94091.84;;;5.89;68.37
30744;BME280;17486;46.738;7.622;2024-01-06T01:05:03;94081.50;;;5.89;68.22
30744;BME280;17486;46.738;7.622;2024-01-06T01:07:28;94097.34;;;6.01;68.43
30744;BME280;17486;46.738;7.622;2024-01-06T01:09:54;94103.31;;;6.01;68.74
30744;BME280;17486;46.738;7.622;2024-01-06T01:12:21;94050.59;;;5.72;68.40
30744;BME280;17486;46.738;7.622;2024-01-06T01:14:47;94099.09;;;6.00;68.45
30744;BME280;17486;46.738;7.622;2024-01-06T01:17:12;94109.41;;;6.00;68.46
30744;BME280;17486;46.738;7.622;2024-01-06T01:19:37;94102.59;;;5.99;68.78
30744;BME280;17486;46.738;7.622;2024-01-06T01:22:03;94113.81;;;5.98;68.70
30744;BME280;17486;46.738;7.622;2024-01-06T01:24:28;94109.53;;;5.97;67.98
30744;BME280;17486;46.738;7.622;2024-01-06T01:26:53;94108.00;;;5.93;67.97
30744;BME280;17486;46.738;7.622;2024-01-06T01:29:19;94122.44;;;5.97;68.04
30744;BME280;17486;46.738;7.622;2024-01-06T01:31:46;94121.72;;;5.93;68.25
30744;BME280;17486;46.738;7.622;2024-01-06T01:34:12;94132.00;;;5.95;68.52
30744;BME280;17486;46.738;7.622;2024-01-06T01:36:37;94118.72;;;5.85;68.80
30744;BME280;17486;46.738;7.622;2024-01-06T01:39:02;94134.06;;;5.88;68.08
30744;BME280;17486;46.738;7.622;2024-01-06T01:41:28;94146.72;;;5.93;68.39
30744;BME280;17486;46.738;7.622;2024-01-06T01:43:53;94144.13;;;5.93;68.17
30744;BME280;17486;46.738;7.622;2024-01-06T01:46:26;94114.69;;;5.79;68.29
30744;BME280;17486;46.738;7.622;2024-01-06T01:48:54;94139.88;;;5.92;68.06
30744;BME280;17486;46.738;7.622;2024-01-06T01:51:20;94134.97;;;5.87;68.20
30744;BME280;17486;46.738;7.622;2024-01-06T01:53:46;94151.78;;;5.94;68.15
30744;BME280;17486;46.738;7.622;2024-01-06T01:56:12;94145.97;;;5.91;68.03
30744;BME280;17486;46.738;7.622;2024-01-06T01:58:37;94142.53;;;5.90;68.57
30744;BME280;17486;46.738;7.622;2024-01-06T02:01:03;94145.97;;;5.91;68.06
30744;BME280;17486;46.738;7.622;2024-01-06T02:03:32;94145.19;;;5.89;67.82
30744;BME280;17486;46.738;7.622;2024-01-06T02:05:57;94147.78;;;5.89;68.13
30744;BME280;17486;46.738;7.622;2024-01-06T02:08:23;94148.59;;;5.89;68.21
30744;BME280;17486;46.738;7.622;2024-01-06T02:10:48;94142.69;;;5.87;68.50
30744;BME280;17486;46.738;7.622;2024-01-06T02:13:14;94141.09;;;5.85;68.30
30744;BME280;17486;46.738;7.622;2024-01-06T02:15:39;94146.09;;;5.88;68.27
30744;BME280;17486;46.738;7.622;2024-01-06T02:18:05;94146.88;;;5.90;68.17
30744;BME280;17486;46.738;7.622;2024-01-06T02:20:31;94147.78;;;5.89;67.74
30744;BME280;17486;46.738;7.622;2024-01-06T02:22:56;94147.00;;;5.87;68.04
30744;BME280;17486;46.738;7.622;2024-01-06T02:25:25;94126.16;;;5.74;67.64
30744;BME280;17486;46.738;7.622;2024-01-06T02:27:51;94149.66;;;5.85;67.75
30744;BME280;17486;46.738;7.622;2024-01-06T02:30:16;94150.53;;;5.86;67.52
30744;BME280;17486;46.738;7.622;2024-01-06T02:32:42;94137.69;;;5.84;67.44
30744;BME280;17486;46.738;7.622;2024-01-06T02:35:07;94151.34;;;5.86;68.18
30744;BME280;17486;46.738;7.622;2024-01-06T02:37:33;94139.28;;;5.87;67.69
30744;BME280;17486;46.738;7.622;2024-01-06T02:39:58;94141.25;;;5.81;68.22
30744;BME280;17486;46.738;7.622;2024-01-06T02:42:23;94145.66;;;5.79;67.81
30744;BME280;17486;46.738;7.622;2024-01-06T02:44:50;94147.34;;;5.80;67.89
30744;BME280;17486;46.738;7.622;2024-01-06T02:47:15;94153.94;;;5.86;67.82
30744;BME280;17486;46.738;7.622;2024-01-06T02:49:41;94153.16;;;5.84;67.90
30744;BME280;17486;46.738;7.622;2024-01-06T02:52:06;94157.56;;;5.82;68.28
30744;BME280;17486;46.738;7.622;2024-01-06T02:54:32;94155.00;;;5.82;68.64
30744;BME280;17486;46.738;7.622;2024-01-06T02:56:57;94153.94;;;5.86;68.84
30744;BME280;17486;46.738;7.622;2024-01-06T02:59:22;94157.50;;;5.84;68.56
30744;BME280;17486;46.738;7.622;2024-01-06T03:01:48;94156.72;;;5.81;68.29
30744;BME280;17486;46.738;7.622;2024-01-06T03:04:13;94160.97;;;5.82;68.33
30744;BME280;17486;46.738;7.622;2024-01-06T03:06:38;94157.66;;;5.80;68.93
30744;BME280;17486;46.738;7.622;2024-01-06T03:09:04;94153.41;;;5.79;69.18
30744;BME280;17486;46.738;7.622;2024-01-06T03:11:29;94155.19;;;5.77;69.23
30744;BME280;17486;46.738;7.622;2024-01-06T03:13:54;94161.13;;;5.79;68.91
30744;BME280;17486;46.738;7.622;2024-01-06T03:16:20;94161.13;;;5.79;68.79
30744;BME280;17486;46.738;7.622;2024-01-06T03:18:45;94159.47;;;5.78;68.83
30744;BME280;17486;46.738;7.622;2024-01-06T03:21:19;94162.81;;;5.80;68.98
30744;BME280;17486;46.738;7.622;2024-01-06T03:23:45;94166.81;;;5.86;69.16
30744;BME280;17486;46.738;7.622;2024-01-06T03:26:10;94161.13;;;5.79;69.40
30744;BME280;17486;46.738;7.622;2024-01-06T03:28:36;94165.41;;;5.80;68.86
30744;BME280;17486;46.738;7.622;2024-01-06T03:31:02;94162.66;;;5.84;69.42
30744;BME280;17486;46.738;7.622;2024-01-06T03:33:27;94172.97;;;5.84;69.10
30744;BME280;17486;46.738;7.622;2024-01-06T03:35:53;94168.72;;;5.82;69.17
30744;BME280;17486;46.738;7.622;2024-01-06T03:38:18;94165.03;;;5.88;68.53
30744;BME280;17486;46.738;7.622;2024-01-06T03:40:43;94166.28;;;5.79;69.26
30744;BME280;17486;46.738;7.622;2024-01-06T03:43:09;94169.09;;;5.75;68.63
30744;BME280;17486;46.738;7.622;2024-01-06T03:45:34;94177.69;;;5.75;69.31
30744;BME280;17486;46.738;7.622;2024-01-06T03:48:00;94180.09;;;5.78;69.16
30744;BME280;17486;46.738;7.622;2024-01-06T03:50:25;94168.41;;;5.71;68.73
30744;BME280;17486;46.738;7.622;2024-01-06T03:52:50;94185.25;;;5.78;68.74
30744;BME280;17486;46.738;7.622;2024-01-06T03:55:16;94187.22;;;5.73;69.54
30744;BME280;17486;46.738;7.622;2024-01-06T03:57:41;94188.81;;;5.76;69.54
30744;BME280;17486;46.738;7.622;2024-01-06T04:00:07;94195.72;;;5.75;68.79
30744;BME280;17486;46.738;7.622;2024-01-06T04:02:33;94201.63;;;5.77;69.17
30744;BME280;17486;46.738;7.622;2024-01-06T04:04:59;94196.41;;;5.79;68.35
30744;BME280;17486;46.738;7.622;2024-01-06T04:07:24;94191.47;;;5.74;68.43
30744;BME280;17486;46.738;7.622;2024-01-06T04:09:49;94208.56;;;5.77;68.63
30744;BME280;17486;46.738;7.622;2024-01-06T04:12:15;94198.31;;;5.75;68.64
30744;BME280;17486;46.738;7.622;2024-01-06T04:14:40;94202.69;;;5.73;68.56
30744;BME280;17486;46.738;7.622;2024-01-06T04:17:06;94192.66;;;5.67;68.44
30744;BME280;17486;46.738;7.622;2024-01-06T04:19:31;94208.72;;;5.74;68.71
30744;BME280;17486;46.738;7.622;2024-01-06T04:21:57;94222.50;;;5.73;68.79
30744;BME280;17486;46.738;7.622;2024-01-06T04:24:22;94211.41;;;5.71;68.23
30744;BME280;17486;46.738;7.622;2024-01-06T04:26:49;94220.84;;;5.72;68.71
30744;BME280;17486;46.738;7.622;2024-01-06T04:29:14;94204.75;;;5.67;68.67
30744;BME280;17486;46.738;7.622;2024-01-06T04:31:40;94219.16;;;5.71;69.06
30744;BME280;17486;46.738;7.622;2024-01-06T04:34:06;94220.13;;;5.68;69.14
30744;BME280;17486;46.738;7.622;2024-01-06T04:36:31;94220.22;;;5.67;69.33
30744;BME280;17486;46.738;7.622;2024-01-06T04:38:56;94227.13;;;5.66;69.27
30744;BME280;17486;46.738;7.622;2024-01-06T04:41:22;94220.41;;;5.62;69.25
30744;BME280;17486;46.738;7.622;2024-01-06T04:43:47;94224.91;;;5.58;68.88
30744;BME280;17486;46.738;7.622;2024-01-06T04:46:13;94229.00;;;5.62;68.58
30744;BME280;17486;46.738;7.622;2024-01-06T04:48:41;94237.50;;;5.64;69.06
30744;BME280;17486;46.738;7.622;2024-01-06T04:51:06;94214.88;;;5.52;68.45
30744;BME280;17486;46.738;7.622;2024-01-06T04:53:38;94234.31;;;5.59;69.14
30744;BME280;17486;46.738;7.622;2024-01-06T04:56:03;94239.53;;;5.58;68.75
30744;BME280;17486;46.738;7.622;2024-01-06T04:58:29;94241.34;;;5.56;68.34
30744;BME280;17486;46.738;7.622;2024-01-06T05:00:54;94253.41;;;5.55;69.02
30744;BME280;17486;46.738;7.622;2024-01-06T05:03:19;94236.31;;;5.53;68.93
30744;BME280;17486;46.738;7.622;2024-01-06T05:05:45;94238.00;;;5.54;68.82
30744;BME280;17486;46.738;7.622;2024-01-06T05:08:10;94238.22;;;5.49;68.61
30744;BME280;17486;46.738;7.622;2024-01-06T05:10:36;94242.47;;;5.50;68.48
30744;BME280;17486;46.738;7.622;2024-01-06T05:13:01;94238.34;;;5.46;68.67
30744;BME280;17486;46.738;7.622;2024-01-06T05:15:26;94230.78;;;5.43;68.76
30744;BME280;17486;46.738;7.622;2024-01-06T05:17:52;94241.78;;;5.46;68.00
30744;BME280;17486;46.738;7.622;2024-01-06T05:20:17;94237.06;;;5.37;68.36
30744;BME280;17486;46.738;7.622;2024-01-06T05:22:43;94237.69;;;5.42;68.20
30744;BME280;17486;46.738;7.622;2024-01-06T05:25:08;94243.75;;;5.41;68.75
30744;BME280;17486;46.738;7.622;2024-01-06T05:27:34;94232.88;;;5.35;68.63
30744;BME280;17486;46.738;7.622;2024-01-06T05:29:59;94242.13;;;5.39;68.23
30744;BME280;17486;46.738;7.622;2024-01-06T05:32:25;94238.84;;;5.35;68.56
30744;BME280;17486;46.738;7.622;2024-01-06T05:34:50;94234.66;;;5.32;68.66
30744;BME280;17486;46.738;7.622;2024-01-06T05:37:16;94233.06;;;5.30;68.45
30744;BME280;17486;46.738;7.622;2024-01-06T05:39:41;94241.34;;;5.37;68.21
30744;BME280;17486;46.738;7.622;2024-01-06T05:42:09;94214.53;;;5.22;68.72
30744;BME280;17486;46.738;7.622;2024-01-06T05:44:36;94244.16;;;5.32;68.69
30744;BME280;17486;46.738;7.622;2024-01-06T05:47:02;94250.84;;;5.36;68.54
30744;BME280;17486;46.738;7.622;2024-01-06T05:49:27;94241.50;;;5.34;68.37
30744;BME280;17486;46.738;7.622;2024-01-06T05:51:53;94246.50;;;5.37;68.26
30744;BME280;17486;46.738;7.622;2024-01-06T05:54:18;94254.94;;;5.40;67.99
30744;BME280;17486;46.738;7.622;2024-01-06T05:56:44;94261.84;;;5.40;68.76
30744;BME280;17486;46.738;7.622;2024-01-06T05:59:09;94239.03;;;5.30;67.93
30744;BME280;17486;46.738;7.622;2024-01-06T06:01:34;94258.50;;;5.38;68.23
30744;BME280;17486;46.738;7.622;2024-01-06T06:04:00;94266.09;;;5.41;68.14
30744;BME280;17486;46.738;7.622;2024-01-06T06:06:25;94268.66;;;5.41;68.11
30744;BME280;17486;46.738;7.622;2024-01-06T06:08:50;94266.09;;;5.41;68.21
30744;BME280;17486;46.738;7.622;2024-01-06T06:11:16;94260.38;;;5.34;67.91
30744;BME280;17486;46.738;7.622;2024-01-06T06:13:41;94267.13;;;5.37;67.99
30744;BME280;17486;46.738;7.622;2024-01-06T06:16:09;94253.50;;;5.35;68.05
30744;BME280;17486;46.738;7.622;2024-01-06T06:18:35;94273.81;;;5.41;68.28
30744;BME280;17486;46.738;7.622;2024-01-06T06:21:01;94272.03;;;5.43;68.44
30744;BME280;17486;46.738;7.622;2024-01-06T06:23:28;94272.84;;;5.43;67.76
30744;BME280;17486;46.738;7.622;2024-01-06T06:25:54;94272.66;;;5.48;67.86
30744;BME280;17486;46.738;7.622;2024-01-06T06:28:19;94276.06;;;5.48;67.36
30744;BME280;17486;46.738;7.622;2024-01-06T06:30:45;94283.78;;;5.48;67.64
30744;BME280;17486;46.738;7.622;2024-01-06T06:33:10;94285.47;;;5.50;67.58
30744;BME280;17486;46.738;7.622;2024-01-06T06:35:35;94294.19;;;5.47;67.75
30744;BME280;17486;46.738;7.622;2024-01-06T06:38:01;94296.75;;;5.47;68.06
30744;BME280;17486;46.738;7.622;2024-01-06T06:40:26;94287.56;;;5.41;67.63
30744;BME280;17486;46.738;7.622;2024-01-06T06:42:51;94297.81;;;5.43;67.85
30744;BME280;17486;46.738;7.622;2024-01-06T06:45:17;94292.56;;;5.44;67.48
30744;BME280;17486;46.738;7.622;2024-01-06T06:47:45;94293.22;;;5.50;67.66
30744;BME280;17486;46.738;7.622;2024-01-06T06:50:11;94292.50;;;5.46;68.13
30744;BME280;17486;46.738;7.622;2024-01-06T06:52:36;94295.16;;;5.44;68.03
30744;BME280;17486;46.738;7.622;2024-01-06T06:55:02;94302.06;;;5.44;67.99
30744;BME280;17486;46.738;7.622;2024-01-06T06:57:27;94303.66;;;5.46;68.10
30744;BME280;17486;46.738;7.622;2024-01-06T06:59:52;94306.28;;;5.45;67.89
30744;BME280;17486;46.738;7.622;2024-01-06T07:02:18;94298.72;;;5.42;67.87
30744;BME280;17486;46.738;7.622;2024-01-06T07:04:43;94311.34;;;5.48;68.05
30744;BME280;17486;46.738;7.622;2024-01-06T07:07:08;94308.13;;;5.43;67.50
30744;BME280;17486;46.738;7.622;2024-01-06T07:09:34;94306.53;;;5.40;67.97
30744;BME280;17486;46.738;7.622;2024-01-06T07:11:59;94307.41;;;5.39;67.45
30744;BME280;17486;46.738;7.622;2024-01-06T07:14:25;94308.28;;;5.40;67.48
30744;BME280;17486;46.738;7.622;2024-01-06T07:16:50;94297.09;;;5.39;67.57
30744;BME280;17486;46.738;7.622;2024-01-06T07:19:16;94253.00;;;5.07;67.39
30744;BME280;17486;46.738;7.622;2024-01-06T07:21:41;94289.03;;;5.28;67.71
30744;BME280;17486;46.738;7.622;2024-01-06T07:24:07;94306.66;;;5.37;67.76
30744;BME280;17486;46.738;7.622;2024-01-06T07:26:32;94302.41;;;5.36;67.32
30744;BME280;17486;46.738;7.622;2024-01-06T07:28:57;94298.16;;;5.35;67.51
30744;BME280;17486;46.738;7.622;2024-01-06T07:31:23;94297.38;;;5.33;67.00
30744;BME280;17486;46.738;7.622;2024-01-06T07:33:48;94311.88;;;5.36;67.53
30744;BME280;17486;46.738;7.622;2024-01-06T07:36:14;94310.25;;;5.33;67.75
30744;BME280;17486;46.738;7.622;2024-01-06T07:38:39;94306.16;;;5.29;67.36
30744;BME280;17486;46.738;7.622;2024-01-06T07:41:04;94309.44;;;5.32;67.72
30744;BME280;17486;46.738;7.622;2024-01-06T07:43:30;94316.34;;;5.32;67.73
30744;BME280;17486;46.738;7.622;2024-01-06T07:45:55;94313.88;;;5.29;67.39
30744;BME280;17486;46.738;7.622;2024-01-06T07:48:21;94328.31;;;5.33;67.83
30744;BME280;17486;46.738;7.622;2024-01-06T07:50:47;94325.72;;;5.33;67.36
30744;BME280;17486;46.738;7.622;2024-01-06T07:53:12;94329.22;;;5.32;67.89
30744;BME280;17486;46.738;7.622;2024-01-06T07:55:39;94290.38;;;4.97;67.81
30744;BME280;17486;46.738;7.622;2024-01-06T07:58:05;94332.00;;;5.27;68.18
30744;BME280;17486;46.738;7.622;2024-01-06T08:00:30;94332.06;;;5.26;67.72
30744;BME280;17486;46.738;7.622;2024-01-06T08:02:55;94339.66;;;5.29;67.86
30744;BME280;17486;46.738;7.622;2024-01-06T08:05:21;94333.69;;;5.28;67.75
30744;BME280;17486;46.738;7.622;2024-01-06T08:07:46;94337.09;;;5.29;67.91
30744;BME280;17486;46.738;7.622;2024-01-06T08:10:12;94341.19;;;5.33;68.03
30744;BME280;17486;46.738;7.622;2024-01-06T08:12:37;94333.69;;;5.28;68.54
30744;BME280;17486;46.738;7.622;2024-01-06T08:15:03;94344.75;;;5.30;68.52
30744;BME280;17486;46.738;7.622;2024-01-06T08:17:29;94343.66;;;5.36;68.07
30744;BME280;17486;46.738;7.622;2024-01-06T08:19:55;94338.50;;;5.36;67.88
30744;BME280;17486;46.738;7.622;2024-01-06T08:22:20;94327.34;;;5.36;67.83
30744;BME280;17486;46.738;7.622;2024-01-06T08:24:46;94340.13;;;5.39;68.19
30744;BME280;17486;46.738;7.622;2024-01-06T08:27:12;94350.09;;;5.46;67.46
30744;BME280;17486;46.738;7.622;2024-01-06T08:29:37;94344.94;;;5.46;67.82
30744;BME280;17486;46.738;7.622;2024-01-06T08:32:03;94334.72;;;5.43;67.61
30744;BME280;17486;46.738;7.622;2024-01-06T08:34:28;94342.34;;;5.46;67.57
30744;BME280;17486;46.738;7.622;2024-01-06T08:36:54;94335.59;;;5.44;67.29
30744;BME280;17486;46.738;7.622;2024-01-06T08:39:19;94339.78;;;5.46;67.31
30744;BME280;17486;46.738;7.622;2024-01-06T08:41:44;94339.63;;;5.50;67.48
30744;BME280;17486;46.738;7.622;2024-01-06T08:44:10;94343.00;;;5.52;67.17
30744;BME280;17486;46.738;7.622;2024-01-06T08:46:35;94344.72;;;5.51;67.32
30744;BME280;17486;46.738;7.622;2024-01-06T08:49:01;94354.06;;;5.54;66.94
30744;BME280;17486;46.738;7.622;2024-01-06T08:51:26;94349.94;;;5.50;67.17
30744;BME280;17486;46.738;7.622;2024-01-06T08:53:52;94347.22;;;5.53;67.47
30744;BME280;17486;46.738;7.622;2024-01-06T08:56:18;94357.41;;;5.56;67.14
30744;BME280;17486;46.738;7.622;2024-01-06T08:58:43;94358.88;;;5.61;67.29
30744;BME280;17486;46.738;7.622;2024-01-06T09:01:09;94359.84;;;5.59;66.84
30744;BME280;17486;46.738;7.622;2024-01-06T09:03:35;94370.09;;;5.60;67.56
30744;BME280;17486;46.738;7.622;2024-01-06T09:06:00;94369.91;;;5.65;67.05
30744;BME280;17486;46.738;7.622;2024-01-06T09:08:25;94360.41;;;5.65;67.37
30744;BME280;17486;46.738;7.622;2024-01-06T09:10:51;94347.94;;;5.56;67.04
30744;BME280;17486;46.738;7.622;2024-01-06T09:13:17;94367.97;;;5.70;67.33
30744;BME280;17486;46.738;7.622;2024-01-06T09:15:43;94367.88;;;5.72;66.48
30744;BME280;17486;46.738;7.622;2024-01-06T09:18:09;94371.44;;;5.69;66.98
30744;BME280;17486;46.738;7.622;2024-01-06T09:20:34;94374.00;;;5.69;66.70
30744;BME280;17486;46.738;7.622;2024-01-06T09:22:59;94371.91;;;5.77;66.44
30744;BME280;17486;46.738;7.622;2024-01-06T09:25:25;94380.44;;;5.79;66.15
30744;BME280;17486;46.738;7.622;2024-01-06T09:27:51;94364.31;;;5.74;65.94
30744;BME280;17486;46.738;7.622;2024-01-06T09:30:18;94355.41;;;5.62;66.42
30744;BME280;17486;46.738;7.622;2024-01-06T09:32:43;94388.38;;;5.75;66.47
30744;BME280;17486;46.738;7.622;2024-01-06T09:35:09;94387.53;;;5.74;66.51
30744;BME280;17486;46.738;7.622;2024-01-06T09:37:34;94385.88;;;5.73;66.77
30744;BME280;17486;46.738;7.622;2024-01-06T09:39:59;94375.69;;;5.70;66.30
30744;BME280;17486;46.738;7.622;2024-01-06T09:42:25;94383.22;;;5.75;66.60
30744;BME280;17486;46.738;7.622;2024-01-06T09:44:51;94378.13;;;5.73;66.69
30744;BME280;17486;46.738;7.622;2024-01-06T09:47:18;94377.22;;;5.74;66.57
30744;BME280;17486;46.738;7.622;2024-01-06T09:49:48;94381.06;;;5.85;66.15
30744;BME280;17486;46.738;7.622;2024-01-06T09:52:15;94384.75;;;5.79;66.00
30744;BME280;17486;46.738;7.622;2024-01-06T09:54:46;94382.16;;;5.79;66.57
30744;BME280;17486;46.738;7.622;2024-01-06T09:57:15;94355.53;;;5.59;66.69
30744;BME280;17486;46.738;7.622;2024-01-06T09:59:41;94382.13;;;5.80;66.93
30744;BME280;17486;46.738;7.622;2024-01-06T10:02:07;94391.50;;;5.81;66.84
30744;BME280;17486;46.738;7.622;2024-01-06T10:04:33;94383.72;;;5.83;67.28
30744;BME280;17486;46.738;7.622;2024-01-06T10:07:00;94380.28;;;5.82;67.12
30744;BME280;17486;46.738;7.622;2024-01-06T10:09:28;94381.91;;;5.85;67.27
30744;BME280;17486;46.738;7.622;2024-01-06T10:11:57;94379.38;;;5.84;66.83
30744;BME280;17486;46.738;7.622;2024-01-06T10:14:24;94378.50;;;5.85;66.97
30744;BME280;17486;46.738;7.622;2024-01-06T10:16:51;94379.31;;;5.85;67.79
30744;BME280;17486;46.738;7.622;2024-01-06T10:19:17;94386.00;;;5.89;67.71
30744;BME280;17486;46.738;7.622;2024-01-06T10:21:43;94378.97;;;5.93;67.78
30744;BME280;17486;46.738;7.622;2024-01-06T10:24:09;94381.41;;;5.96;67.65
30744;BME280;17486;46.738;7.622;2024-01-06T10:26:35;94377.06;;;5.98;67.95
30744;BME280;17486;46.738;7.622;2024-01-06T10:29:00;94376.91;;;6.01;67.33
30744;BME280;17486;46.738;7.622;2024-01-06T10:31:26;94381.22;;;6.01;67.58
30744;BME280;17486;46.738;7.622;2024-01-06T10:33:51;94377.75;;;6.02;67.77
30744;BME280;17486;46.738;7.622;2024-01-06T10:36:17;94377.75;;;6.02;66.88
30744;BME280;17486;46.738;7.622;2024-01-06T10:38:44;94376.97;;;6.00;66.89
30744;BME280;17486;46.738;7.622;2024-01-06T10:41:11;94368.34;;;6.01;66.79
30744;BME280;17486;46.738;7.622;2024-01-06T10:43:36;94367.19;;;6.06;66.74
30744;BME280;17486;46.738;7.622;2024-01-06T10:46:09;94368.06;;;6.07;67.14
30744;BME280;17486;46.738;7.622;2024-01-06T10:48:39;94371.63;;;6.04;66.54
30744;BME280;17486;46.738;7.622;2024-01-06T10:51:08;94363.72;;;6.07;66.64
30744;BME280;17486;46.738;7.622;2024-01-06T10:53:34;94367.97;;;6.08;66.42
30744;BME280;17486;46.738;7.622;2024-01-06T10:56:04;94370.47;;;6.10;66.44
30744;BME280;17486;46.738;7.622;2024-01-06T10:58:32;94368.88;;;6.07;65.86
30744;BME280;17486;46.738;7.622;2024-01-06T11:00:58;94367.28;;;6.05;66.15
30744;BME280;17486;46.738;7.622;2024-01-06T11:03:26;94369.03;;;6.04;65.24
30744;BME280;17486;46.738;7.622;2024-01-06T11:05:54;94364.94;;;6.00;65.53
30744;BME280;17486;46.738;7.622;2024-01-06T11:08:21;94351.63;;;5.89;65.33
30744;BME280;17486;46.738;7.622;2024-01-06T11:10:47;94361.41;;;6.01;65.24
30744;BME280;17486;46.738;7.622;2024-01-06T11:13:14;94369.13;;;6.03;65.25
30744;BME280;17486;46.738;7.622;2024-01-06T11:15:47;94359.59;;;6.03;65.68
30744;BME280;17486;46.738;7.622;2024-01-06T11:18:35;94359.59;;;6.03;65.73
30744;BME280;17486;46.738;7.622;2024-01-06T11:26:31;94350.81;;;6.07;65.15
30744;BME280;17486;46.738;7.622;2024-01-06T11:28:57;94347.59;;;6.02;65.49
30744;BME280;17486;46.738;7.622;2024-01-06T11:31:28;94354.28;;;6.06;65.50
30744;BME280;17486;46.738;7.622;2024-01-06T11:33:54;94355.16;;;6.07;65.18
30744;BME280;17486;46.738;7.622;2024-01-06T11:36:19;94357.66;;;6.08;65.13
30744;BME280;17486;46.738;7.622;2024-01-06T11:38:46;94345.72;;;6.06;64.76
30744;BME280;17486;46.738;7.622;2024-01-06T11:41:48;94355.06;;;6.08;65.31
30744;BME280;17486;46.738;7.622;2024-01-06T11:44:18;94354.03;;;6.12;65.26
30744;BME280;17486;46.738;7.622;2024-01-06T11:46:45;94352.34;;;6.11;65.21
30744;BME280;17486;46.738;7.622;2024-01-06T11:49:10;94354.16;;;6.09;65.27
30744;BME280;17486;46.738;7.622;2024-01-06T11:51:37;94343.22;;;6.04;64.96
30744;BME280;17486;46.738;7.622;2024-01-06T11:54:03;94339.13;;;6.00;64.42
30744;BME280;17486;46.738;7.622;2024-01-06T11:56:28;94346.56;;;6.06;64.79
30744;BME280;17486;46.738;7.622;2024-01-06T11:58:54;94344.13;;;6.03;64.69
30744;BME280;17486;46.738;7.622;2024-01-06T12:01:20;94343.00;;;6.09;66.76
30744;BME280;17486;46.738;7.622;2024-01-06T12:03:46;94340.22;;;6.13;65.98
30744;BME280;17486;46.738;7.622;2024-01-06T12:06:11;94345.38;;;6.13;65.52
30744;BME280;17486;46.738;7.622;2024-01-06T12:08:37;94341.13;;;6.12;65.02
30744;BME280;17486;46.738;7.622;2024-01-06T12:11:03;94341.13;;;6.12;64.54
30744;BME280;17486;46.738;7.622;2024-01-06T12:13:28;94329.03;;;6.13;64.50
30744;BME280;17486;46.738;7.622;2024-01-06T12:15:54;94335.03;;;6.13;64.98
30744;BME280;17486;46.738;7.622;2024-01-06T12:18:20;94329.97;;;6.12;64.80
30744;BME280;17486;46.738;7.622;2024-01-06T12:20:45;94329.47;;;6.04;64.04
30744;BME280;17486;46.738;7.622;2024-01-06T12:23:10;94315.34;;;5.92;64.29
30744;BME280;17486;46.738;7.622;2024-01-06T12:25:36;94325.22;;;6.03;64.96
30744;BME280;17486;46.738;7.622;2024-01-06T12:28:01;94329.41;;;6.05;65.33
30744;BME280;17486;46.738;7.622;2024-01-06T12:30:27;94331.13;;;6.05;65.22
30744;BME280;17486;46.738;7.622;2024-01-06T12:32:53;94296.53;;;5.90;64.85
30744;BME280;17486;46.738;7.622;2024-01-06T12:35:20;94332.00;;;6.05;64.86
30744;BME280;17486;46.738;7.622;2024-01-06T12:37:45;94311.94;;;5.91;64.92
30744;BME280;17486;46.738;7.622;2024-01-06T12:40:15;94320.19;;;6.00;64.82
30744;BME280;17486;46.738;7.622;2024-01-06T12:42:43;94326.13;;;6.02;65.22
30744;BME280;17486;46.738;7.622;2024-01-06T12:45:08;94322.78;;;6.00;64.88
30744;BME280;17486;46.738;7.622;2024-01-06T12:47:35;94280.78;;;5.77;64.79
30744;BME280;17486;46.738;7.622;2024-01-06T12:50:00;94312.31;;;5.84;64.49
30744;BME280;17486;46.738;7.622;2024-01-06T12:52:26;94332.44;;;5.94;64.92
30744;BME280;17486;46.738;7.622;2024-01-06T12:54:51;94321.50;;;5.89;64.47
30744;BME280;17486;46.738;7.622;2024-01-06T12:57:17;94327.50;;;5.90;64.48
30744;BME280;17486;46.738;7.622;2024-01-06T12:59:43;94324.44;;;5.81;65.04
30744;BME280;17486;46.738;7.622;2024-01-06T13:02:08;94318.59;;;5.78;64.66
30744;BME280;17486;46.738;7.622;2024-01-06T13:04:34;94327.22;;;5.77;64.10
30744;BME280;17486;46.738;7.622;2024-01-06T13:07:00;94334.00;;;5.79;64.69
30744;BME280;17486;46.738;7.622;2024-01-06T13:09:27;94323.78;;;5.76;65.06